sensor_id;sensor_type;location;lat;lon;timestamp;pressure;altitude;pressure_sealevel;temperature;humidity
42111;BME280;27766;52.174;5.456;2023-04-06T00:00:36;101765.47;;;4.68;100.00
42111;BME280;27766;52.174;5.456;2023-04-06T00:03:03;101754.59;;;4.57;100.00
42111;BME280;27766;52.174;5.456;2023-04-06T00:05:30;101764.84;;;4.57;100.00
42111;BME280;27766;52.174;5.456;2023-04-06T00:07:58;101764.78;;;4.55;100.00
42111;BME280;27766;52.174;5.456;2023-04-06T00:10:25;101761.88;;;4.49;100.00
42111;BME280;27766;52.174;5.456;2023-04-06T00:12:54;101759.13;;;4.46;100.00
42111;BME280;27766;52.174;5.456;2023-04-06T00:15:23;101760.81;;;4.46;100.00
42111;BME280;27766;52.174;5.456;2023-04-06T00:17:50;101754.53;;;4.40;100.00
42111;BME280;27766;52.174;5.456;2023-04-06T00:20:18;101749.22;;;4.37;100.00
42111;BME280;27766;52.174;5.456;2023-04-06T00:22:45;101750.81;;;4.35;100.00
42111;BME280;27766;52.174;5.456;2023-04-06T00:25:12;101757.91;;;4.39;100.00
42111;BME280;27766;52.174;5.456;2023-04-06T00:27:39;101758.69;;;4.38;100.00
42111;BME280;27766;52.174;5.456;2023-04-06T00:30:07;101750.66;;;4.32;100.00
42111;BME280;27766;52.174;5.456;2023-04-06T00:32:34;101748.09;;;4.32;100.00
42111;BME280;27766;52.174;5.456;2023-04-06T00:35:03;101741.06;;;4.30;100.00
42111;BME280;27766;52.174;5.456;2023-04-06T00:37:31;101740.22;;;4.29;100.00
42111;BME280;27766;52.174;5.456;2023-04-06T00:39:58;101738.28;;;4.25;100.00
42111;BME280;27766;52.174;5.456;2023-04-06T00:42:25;101733.03;;;4.23;100.00
42111;BME280;27766;52.174;5.456;2023-04-06T00:44:57;101729.94;;;4.14;100.00
42111;BME280;27766;52.174;5.456;2023-04-06T00:47:25;101724.81;;;4.14;100.00
42111;BME280;27766;52.174;5.456;2023-04-06T00:49:54;101718.47;;;4.07;100.00
42111;BME280;27766;52.174;5.456;2023-04-06T00:52:21;101715.28;;;4.11;100.00
42111;BME280;27766;52.174;5.456;2023-04-06T00:54:49;101709.09;;;4.08;100.00
42111;BME280;27766;52.174;5.456;2023-04-06T00:57:17;101714.13;;;4.06;100.00
42111;BME280;27766;52.174;5.456;2023-04-06T00:59:45;101714.75;;;4.02;100.00
42111;BME280;27766;52.174;5.456;2023-04-06T01:02:12;101705.72;;;3.94;100.00
42111;BME280;27766;52.174;5.456;2023-04-06T01:04:39;101702.09;;;3.90;100.00
42111;BME280;27766;52.174;5.456;2023-04-06T01:07:07;101703.41;;;3.84;100.00
42111;BME280;27766;52.174;5.456;2023-04-06T01:09:34;101690.06;;;3.74;100.00
42111;BME280;27766;52.174;5.456;2023-04-06T01:12:01;101695.09;;;3.73;100.00
42111;BME280;27766;52.174;5.456;2023-04-06T01:14:29;101685.72;;;3.73;100.00
42111;BME280;27766;52.174;5.456;2023-04-06T01:16:58;101693.88;;;3.81;100.00
42111;BME280;27766;52.174;5.456;2023-04-06T01:19:26;101694.75;;;3.82;100.00
42111;BME280;27766;52.174;5.456;2023-04-06T01:21:53;101688.75;;;3.81;100.00
42111;BME280;27766;52.174;5.456;2023-04-06T01:24:21;101692.19;;;3.82;100.00
42111;BME280;27766;52.174;5.456;2023-04-06T01:26:48;101686.28;;;3.83;100.00
42111;BME280;27766;52.174;5.456;2023-04-06T01:29:15;101684.41;;;3.80;100.00
42111;BME280;27766;52.174;5.456;2023-04-06T01:31:43;101677.53;;;3.79;100.00
42111;BME280;27766;52.174;5.456;2023-04-06T01:34:10;101670.56;;;3.76;100.00
42111;BME280;27766;52.174;5.456;2023-04-06T01:36:37;101676.09;;;3.84;100.00
42111;BME280;27766;52.174;5.456;2023-04-06T01:39:04;101673.53;;;3.84;100.00
42111;BME280;27766;52.174;5.456;2023-04-06T01:41:32;101670.91;;;3.83;100.00
42111;BME280;27766;52.174;5.456;2023-04-06T01:43:59;101661.38;;;3.80;100.00
42111;BME280;27766;52.174;5.456;2023-04-06T01:46:26;101666.56;;;3.82;100.00
42111;BME280;27766;52.174;5.456;2023-04-06T01:48:53;101666.50;;;3.80;100.00
42111;BME280;27766;52.174;5.456;2023-04-06T01:51:20;101657.03;;;3.79;100.00
42111;BME280;27766;52.174;5.456;2023-04-06T01:53:48;101659.59;;;3.79;100.00
42111;BME280;27766;52.174;5.456;2023-04-06T01:56:16;101658.72;;;3.78;100.00
42111;BME280;27766;52.174;5.456;2023-04-06T01:58:43;101659.59;;;3.79;100.00
42111;BME280;27766;52.174;5.456;2023-04-06T02:01:10;101648.47;;;3.78;100.00
42111;BME280;27766;52.174;5.456;2023-04-06T02:03:37;101655.19;;;3.76;100.00
42111;BME280;27766;52.174;5.456;2023-04-06T02:06:04;101625.69;;;3.68;100.00
42111;BME280;27766;52.174;5.456;2023-04-06T02:08:32;101641.66;;;3.79;100.00
42111;BME280;27766;52.174;5.456;2023-04-06T02:10:59;101635.69;;;3.78;100.00
42111;BME280;27766;52.174;5.456;2023-04-06T02:13:26;101636.56;;;3.79;100.00
42111;BME280;27766;52.174;5.456;2023-04-06T02:15:53;101625.16;;;3.74;100.00
42111;BME280;27766;52.174;5.456;2023-04-06T02:18:21;101627.09;;;3.78;100.00
42111;BME280;27766;52.174;5.456;2023-04-06T02:20:48;101631.69;;;3.84;100.00
42111;BME280;27766;52.174;5.456;2023-04-06T02:23:15;101614.22;;;3.76;100.00
42111;BME280;27766;52.174;5.456;2023-04-06T02:25:42;101621.47;;;3.84;100.00
42111;BME280;27766;52.174;5.456;2023-04-06T02:28:09;101624.28;;;3.88;100.00
42111;BME280;27766;52.174;5.456;2023-04-06T02:30:36;101614.56;;;3.83;100.00
42111;BME280;27766;52.174;5.456;2023-04-06T02:33:03;101617.47;;;3.89;100.00
42111;BME280;27766;52.174;5.456;2023-04-06T02:35:31;101621.66;;;3.87;100.00
42111;BME280;27766;52.174;5.456;2023-04-06T02:37:58;101620.22;;;3.92;100.00
42111;BME280;27766;52.174;5.456;2023-04-06T02:40:26;101620.38;;;3.95;100.00
42111;BME280;27766;52.174;5.456;2023-04-06T02:42:53;101600.97;;;3.84;100.00
42111;BME280;27766;52.174;5.456;2023-04-06T02:45:20;101616.16;;;3.95;100.00
42111;BME280;27766;52.174;5.456;2023-04-06T02:47:47;101614.66;;;3.99;100.00
42111;BME280;27766;52.174;5.456;2023-04-06T02:50:14;101603.44;;;3.97;100.00
42111;BME280;27766;52.174;5.456;2023-04-06T02:52:41;101609.78;;;4.04;100.00
42111;BME280;27766;52.174;5.456;2023-04-06T02:55:09;101601.31;;;4.05;100.00
42111;BME280;27766;52.174;5.456;2023-04-06T02:57:36;101594.44;;;4.04;100.00
42111;BME280;27766;52.174;5.456;2023-04-06T03:00:03;101594.69;;;4.08;100.00
42111;BME280;27766;52.174;5.456;2023-04-06T03:02:30;101596.47;;;4.09;100.00
42111;BME280;27766;52.174;5.456;2023-04-06T03:04:58;101592.47;;;4.15;100.00
42111;BME280;27766;52.174;5.456;2023-04-06T03:07:25;101592.47;;;4.15;100.00
42111;BME280;27766;52.174;5.456;2023-04-06T03:09:52;101586.38;;;4.12;100.00
42111;BME280;27766;52.174;5.456;2023-04-06T03:12:20;101593.34;;;4.15;100.00
42111;BME280;27766;52.174;5.456;2023-04-06T03:14:47;101581.78;;;4.07;100.00
42111;BME280;27766;52.174;5.456;2023-04-06T03:17:14;101578.41;;;4.08;100.00
42111;BME280;27766;52.174;5.456;2023-04-06T03:19:41;101585.22;;;4.07;100.00
42111;BME280;27766;52.174;5.456;2023-04-06T03:22:08;101580.38;;;4.12;100.00
42111;BME280;27766;52.174;5.456;2023-04-06T03:24:35;101582.03;;;4.11;100.00
42111;BME280;27766;52.174;5.456;2023-04-06T03:27:02;101572.84;;;4.15;100.00
42111;BME280;27766;52.174;5.456;2023-04-06T03:29:29;101573.72;;;4.16;100.00
42111;BME280;27766;52.174;5.456;2023-04-06T03:31:56;101580.44;;;4.14;100.00
42111;BME280;27766;52.174;5.456;2023-04-06T03:34:23;101578.88;;;4.16;100.00
42111;BME280;27766;52.174;5.456;2023-04-06T03:36:51;101566.06;;;4.16;100.00
42111;BME280;27766;52.174;5.456;2023-04-06T03:39:35;101561.72;;;4.15;100.00
42111;BME280;27766;52.174;5.456;2023-04-06T03:42:03;101559.31;;;4.18;100.00
42111;BME280;27766;52.174;5.456;2023-04-06T03:44:30;101559.22;;;4.16;100.00
42111;BME280;27766;52.174;5.456;2023-04-06T03:46:57;101561.00;;;4.17;100.00
42111;BME280;27766;52.174;5.456;2023-04-06T03:49:25;101560.28;;;4.20;100.00
42111;BME280;27766;52.174;5.456;2023-04-06T03:51:52;101546.34;;;4.15;100.00
42111;BME280;27766;52.174;5.456;2023-04-06T03:54:19;101549.06;;;4.18;100.00
42111;BME280;27766;52.174;5.456;2023-04-06T03:56:46;101548.13;;;4.16;100.00
42111;BME280;27766;52.174;5.456;2023-04-06T03:59:13;101546.41;;;4.16;100.00
42111;BME280;27766;52.174;5.456;2023-04-06T04:01:41;101554.03;;;4.15;100.00
42111;BME280;27766;52.174;5.456;2023-04-06T04:04:08;101533.72;;;4.03;100.00
42111;BME280;27766;52.174;5.456;2023-04-06T04:06:35;101545.09;;;4.08;100.00
42111;BME280;27766;52.174;5.456;2023-04-06T04:09:03;101554.75;;;4.12;100.00
42111;BME280;27766;52.174;5.456;2023-04-06T04:11:30;101543.59;;;4.11;100.00
42111;BME280;27766;52.174;5.456;2023-04-06T04:13:58;101542.66;;;4.09;100.00
42111;BME280;27766;52.174;5.456;2023-04-06T04:16:25;101548.47;;;4.07;100.00
42111;BME280;27766;52.174;5.456;2023-04-06T04:18:52;101547.59;;;4.06;100.00
42111;BME280;27766;52.174;5.456;2023-04-06T04:21:19;101535.06;;;3.96;100.00
42111;BME280;27766;52.174;5.456;2023-04-06T04:23:46;101545.66;;;4.02;100.00
42111;BME280;27766;52.174;5.456;2023-04-06T04:26:14;101538.19;;;3.90;100.00
42111;BME280;27766;52.174;5.456;2023-04-06T04:28:41;101545.47;;;3.99;100.00
42111;BME280;27766;52.174;5.456;2023-04-06T04:31:08;101540.19;;;3.96;100.00
42111;BME280;27766;52.174;5.456;2023-04-06T04:33:36;101541.59;;;3.91;100.00
42111;BME280;27766;52.174;5.456;2023-04-06T04:36:03;101547.06;;;3.97;100.00
42111;BME280;27766;52.174;5.456;2023-04-06T04:38:31;101550.53;;;3.98;100.00
42111;BME280;27766;52.174;5.456;2023-04-06T04:40:58;101537.47;;;3.93;100.00
42111;BME280;27766;52.174;5.456;2023-04-06T04:43:25;101541.59;;;3.91;100.00
42111;BME280;27766;52.174;5.456;2023-04-06T04:45:52;101541.88;;;3.95;100.00
42111;BME280;27766;52.174;5.456;2023-04-06T04:48:19;101551.22;;;3.95;100.00
42111;BME280;27766;52.174;5.456;2023-04-06T04:50:46;101555.66;;;3.98;100.00
42111;BME280;27766;52.174;5.456;2023-04-06T04:53:13;101542.03;;;3.99;100.00
42111;BME280;27766;52.174;5.456;2023-04-06T04:55:41;101539.31;;;3.95;100.00
42111;BME280;27766;52.174;5.456;2023-04-06T04:58:08;101537.63;;;3.96;100.00
42111;BME280;27766;52.174;5.456;2023-04-06T05:00:37;101546.47;;;4.01;100.00
42111;BME280;27766;52.174;5.456;2023-04-06T05:03:05;101547.06;;;3.97;100.00
42111;BME280;27766;52.174;5.456;2023-04-06T05:05:33;101534.97;;;3.94;100.00
42111;BME280;27766;52.174;5.456;2023-04-06T05:08:00;101530.91;;;3.98;100.00
42111;BME280;27766;52.174;5.456;2023-04-06T05:10:27;101534.53;;;4.02;100.00
42111;BME280;27766;52.174;5.456;2023-04-06T05:12:54;101536.38;;;4.04;100.00
42111;BME280;27766;52.174;5.456;2023-04-06T05:15:21;101537.28;;;4.05;100.00
42111;BME280;27766;52.174;5.456;2023-04-06T05:17:50;101536.63;;;4.09;100.00
42111;BME280;27766;52.174;5.456;2023-04-06T05:20:18;101540.88;;;4.08;100.00
42111;BME280;27766;52.174;5.456;2023-04-06T05:22:45;101539.53;;;4.15;100.00
42111;BME280;27766;52.174;5.456;2023-04-06T05:25:13;101533.69;;;4.18;100.00
42111;BME280;27766;52.174;5.456;2023-04-06T05:27:40;101539.72;;;4.18;100.00
42111;BME280;27766;52.174;5.456;2023-04-06T05:30:08;101539.16;;;4.24;100.00
42111;BME280;27766;52.174;5.456;2023-04-06T05:32:35;101536.94;;;4.30;100.00
42111;BME280;27766;52.174;5.456;2023-04-06T05:35:02;101538.00;;;4.34;100.00
42111;BME280;27766;52.174;5.456;2023-04-06T05:37:29;101540.63;;;4.35;100.00
42111;BME280;27766;52.174;5.456;2023-04-06T05:39:57;101533.72;;;4.34;100.00
42111;BME280;27766;52.174;5.456;2023-04-06T05:42:24;101533.25;;;4.41;100.00
42111;BME280;27766;52.174;5.456;2023-04-06T05:44:51;101531.94;;;4.48;100.00
42111;BME280;27766;52.174;5.456;2023-04-06T05:47:18;101532.91;;;4.67;100.00
42111;BME280;27766;52.174;5.456;2023-04-06T05:49:45;101526.03;;;4.82;100.00
42111;BME280;27766;52.174;5.456;2023-04-06T05:52:12;101525.38;;;4.86;100.00
42111;BME280;27766;52.174;5.456;2023-04-06T05:54:40;101523.78;;;4.88;100.00
42111;BME280;27766;52.174;5.456;2023-04-06T05:57:07;101523.38;;;4.97;100.00
42111;BME280;27766;52.174;5.456;2023-04-06T05:59:34;101523.84;;;5.06;100.00
42111;BME280;27766;52.174;5.456;2023-04-06T06:02:01;101523.13;;;5.09;100.00
42111;BME280;27766;52.174;5.456;2023-04-06T06:04:30;101520.72;;;5.12;100.00
42111;BME280;27766;52.174;5.456;2023-04-06T06:07:00;101509.16;;;5.20;100.00
42111;BME280;27766;52.174;5.456;2023-04-06T06:09:27;101516.94;;;5.22;100.00
42111;BME280;27766;52.174;5.456;2023-04-06T06:11:54;101514.69;;;5.28;100.00
42111;BME280;27766;52.174;5.456;2023-04-06T06:14:22;101512.91;;;5.27;100.00
42111;BME280;27766;52.174;5.456;2023-04-06T06:16:49;101512.41;;;5.34;100.00
42111;BME280;27766;52.174;5.456;2023-04-06T06:19:20;101514.25;;;5.37;100.00
42111;BME280;27766;52.174;5.456;2023-04-06T06:21:47;101505.84;;;5.39;100.00
42111;BME280;27766;52.174;5.456;2023-04-06T06:24:15;101516.03;;;5.56;100.00
42111;BME280;27766;52.174;5.456;2023-04-06T06:26:42;101505.06;;;5.59;100.00
42111;BME280;27766;52.174;5.456;2023-04-06T06:29:10;101507.41;;;5.72;100.00
42111;BME280;27766;52.174;5.456;2023-04-06T06:31:37;101514.38;;;5.75;100.00
42111;BME280;27766;52.174;5.456;2023-04-06T06:34:04;101501.31;;;5.70;100.00
42111;BME280;27766;52.174;5.456;2023-04-06T06:36:32;101517.81;;;5.75;100.00
42111;BME280;27766;52.174;5.456;2023-04-06T06:38:59;101516.44;;;5.82;100.00
42111;BME280;27766;52.174;5.456;2023-04-06T06:41:29;101514.97;;;5.87;100.00
42111;BME280;27766;52.174;5.456;2023-04-06T06:43:57;101504.63;;;5.85;100.00
42111;BME280;27766;52.174;5.456;2023-04-06T06:46:24;101513.03;;;5.99;100.00
42111;BME280;27766;52.174;5.456;2023-04-06T06:48:52;101510.69;;;6.04;100.00
42111;BME280;27766;52.174;5.456;2023-04-06T06:51:19;101508.53;;;6.13;100.00
42111;BME280;27766;52.174;5.456;2023-04-06T06:53:46;101507.34;;;6.25;100.00
42111;BME280;27766;52.174;5.456;2023-04-06T06:56:13;101517.97;;;6.32;100.00
42111;BME280;27766;52.174;5.456;2023-04-06T06:58:40;101511.38;;;6.38;100.00
42111;BME280;27766;52.174;5.456;2023-04-06T07:01:08;101507.69;;;6.51;100.00
42111;BME280;27766;52.174;5.456;2023-04-06T07:03:35;101504.63;;;6.59;100.00
42111;BME280;27766;52.174;5.456;2023-04-06T07:06:02;101511.22;;;6.72;100.00
42111;BME280;27766;52.174;5.456;2023-04-06T07:08:30;101510.19;;;6.88;100.00
42111;BME280;27766;52.174;5.456;2023-04-06T07:10:57;101507.06;;;6.95;100.00
42111;BME280;27766;52.174;5.456;2023-04-06T07:13:24;101516.69;;;7.00;100.00
42111;BME280;27766;52.174;5.456;2023-04-06T07:15:54;101509.84;;;7.00;100.00
42111;BME280;27766;52.174;5.456;2023-04-06T07:18:22;101500.78;;;6.89;100.00
42111;BME280;27766;52.174;5.456;2023-04-06T07:20:49;101505.19;;;6.91;100.00
42111;BME280;27766;52.174;5.456;2023-04-06T07:23:16;101503.41;;;6.90;100.00
42111;BME280;27766;52.174;5.456;2023-04-06T07:25:44;101506.94;;;6.92;100.00
42111;BME280;27766;52.174;5.456;2023-04-06T07:28:11;101490.28;;;6.84;100.00
42111;BME280;27766;52.174;5.456;2023-04-06T07:30:38;101502.44;;;6.88;100.00
42111;BME280;27766;52.174;5.456;2023-04-06T07:33:05;101497.25;;;6.87;100.00
42111;BME280;27766;52.174;5.456;2023-04-06T07:35:33;101493.72;;;6.85;100.00
42111;BME280;27766;52.174;5.456;2023-04-06T07:38:01;101497.38;;;6.90;100.00
42111;BME280;27766;52.174;5.456;2023-04-06T07:40:29;101498.13;;;6.87;100.00
42111;BME280;27766;52.174;5.456;2023-04-06T07:42:58;101493.78;;;6.86;100.00
42111;BME280;27766;52.174;5.456;2023-04-06T07:45:26;101496.56;;;6.91;100.00
42111;BME280;27766;52.174;5.456;2023-04-06T07:47:53;101484.38;;;6.87;100.00
42111;BME280;27766;52.174;5.456;2023-04-06T07:50:20;101493.56;;;7.01;100.00
42111;BME280;27766;52.174;5.456;2023-04-06T07:52:47;101494.53;;;7.03;100.00
42111;BME280;27766;52.174;5.456;2023-04-06T07:55:15;101480.97;;;7.07;100.00
42111;BME280;27766;52.174;5.456;2023-04-06T07:57:42;101489.78;;;7.12;100.00
42111;BME280;27766;52.174;5.456;2023-04-06T08:00:09;101486.66;;;7.20;100.00
42111;BME280;27766;52.174;5.456;2023-04-06T08:02:37;101486.00;;;7.25;100.00
42111;BME280;27766;52.174;5.456;2023-04-06T08:05:05;101486.19;;;7.30;100.00
42111;BME280;27766;52.174;5.456;2023-04-06T08:07:32;101482.25;;;7.38;100.00
42111;BME280;27766;52.174;5.456;2023-04-06T08:09:59;101497.34;;;7.50;100.00
42111;BME280;27766;52.174;5.456;2023-04-06T08:12:26;101494.34;;;7.60;100.00
42111;BME280;27766;52.174;5.456;2023-04-06T08:14:54;101502.16;;;7.64;100.00
42111;BME280;27766;52.174;5.456;2023-04-06T08:17:21;101497.38;;;7.73;100.00
42111;BME280;27766;52.174;5.456;2023-04-06T08:19:49;101495.88;;;7.78;100.00
42111;BME280;27766;52.174;5.456;2023-04-06T08:22:16;101493.66;;;7.87;100.00
42111;BME280;27766;52.174;5.456;2023-04-06T08:24:43;101494.66;;;7.91;100.00
42111;BME280;27766;52.174;5.456;2023-04-06T08:27:10;101499.06;;;7.93;100.00
42111;BME280;27766;52.174;5.456;2023-04-06T08:29:37;101492.41;;;7.99;100.00
42111;BME280;27766;52.174;5.456;2023-04-06T08:32:04;101492.41;;;7.99;100.00
42111;BME280;27766;52.174;5.456;2023-04-06T08:34:33;101495.44;;;8.11;95.56
42111;BME280;27766;52.174;5.456;2023-04-06T08:37:00;101488.59;;;8.12;96.16
42111;BME280;27766;52.174;5.456;2023-04-06T08:39:28;101476.34;;;8.06;94.82
42111;BME280;27766;52.174;5.456;2023-04-06T08:41:57;101486.06;;;8.13;95.29
42111;BME280;27766;52.174;5.456;2023-04-06T08:44:26;101489.69;;;8.18;96.81
42111;BME280;27766;52.174;5.456;2023-04-06T08:46:54;101488.84;;;8.18;96.15
42111;BME280;27766;52.174;5.456;2023-04-06T08:49:22;101473.53;;;8.22;94.99
42111;BME280;27766;52.174;5.456;2023-04-06T08:51:50;101479.72;;;8.28;96.24
42111;BME280;27766;52.174;5.456;2023-04-06T08:54:17;101457.97;;;8.21;96.69
42111;BME280;27766;52.174;5.456;2023-04-06T08:56:45;101474.03;;;8.36;97.01
42111;BME280;27766;52.174;5.456;2023-04-06T08:59:12;101481.94;;;8.41;99.83
42111;BME280;27766;52.174;5.456;2023-04-06T09:01:40;101476.22;;;8.48;98.70
42111;BME280;27766;52.174;5.456;2023-04-06T09:04:10;101485.19;;;8.58;93.34
42111;BME280;27766;52.174;5.456;2023-04-06T09:06:39;101477.38;;;8.57;92.75
42111;BME280;27766;52.174;5.456;2023-04-06T09:09:07;101494.50;;;8.77;95.50
42111;BME280;27766;52.174;5.456;2023-04-06T09:11:49;101501.56;;;8.83;95.34
42111;BME280;27766;52.174;5.456;2023-04-06T09:14:33;101493.16;;;8.89;95.44
42111;BME280;27766;52.174;5.456;2023-04-06T09:17:00;101492.22;;;8.86;95.18
42111;BME280;27766;52.174;5.456;2023-04-06T09:19:30;101491.75;;;8.98;95.58
42111;BME280;27766;52.174;5.456;2023-04-06T09:22:05;101487.91;;;9.11;92.81
42111;BME280;27766;52.174;5.456;2023-04-06T09:24:47;101491.78;;;9.24;92.41
42111;BME280;27766;52.174;5.456;2023-04-06T09:27:15;101486.00;;;9.31;90.10
42111;BME280;27766;52.174;5.456;2023-04-06T09:29:43;101493.97;;;9.38;91.25
42111;BME280;27766;52.174;5.456;2023-04-06T09:32:11;101494.84;;;9.38;93.07
42111;BME280;27766;52.174;5.456;2023-04-06T09:34:38;101484.63;;;9.43;94.51
42111;BME280;27766;52.174;5.456;2023-04-06T09:37:16;101481.94;;;9.38;97.55
42111;BME280;27766;52.174;5.456;2023-04-06T09:39:44;101486.16;;;9.36;100.00
42111;BME280;27766;52.174;5.456;2023-04-06T09:42:32;101485.50;;;9.42;100.00
42111;BME280;27766;52.174;5.456;2023-04-06T09:45:00;101485.34;;;9.37;100.00
42111;BME280;27766;52.174;5.456;2023-04-06T09:47:28;101479.00;;;9.55;100.00
42111;BME280;27766;52.174;5.456;2023-04-06T09:49:59;101487.88;;;9.63;100.00
42111;BME280;27766;52.174;5.456;2023-04-06T09:52:31;101485.41;;;9.66;100.00
42111;BME280;27766;52.174;5.456;2023-04-06T09:55:03;101484.66;;;9.70;100.00
42111;BME280;27766;52.174;5.456;2023-04-06T10:00:21;101484.97;;;9.79;100.00
42111;BME280;27766;52.174;5.456;2023-04-06T10:03:02;101485.09;;;9.84;100.00
42111;BME280;27766;52.174;5.456;2023-04-06T10:05:57;101480.44;;;10.01;100.00
42111;BME280;27766;52.174;5.456;2023-04-06T10:08:29;101485.44;;;9.95;100.00
42111;BME280;27766;52.174;5.456;2023-04-06T10:10:59;101485.84;;;10.07;100.00
42111;BME280;27766;52.174;5.456;2023-04-06T10:13:28;101473.72;;;10.06;100.00
42111;BME280;27766;52.174;5.456;2023-04-06T10:15:56;101477.97;;;10.04;100.00
42111;BME280;27766;52.174;5.456;2023-04-06T10:18:24;101487.34;;;10.29;100.00
42111;BME280;27766;52.174;5.456;2023-04-06T10:20:55;101476.13;;;10.29;100.00
42111;BME280;27766;52.174;5.456;2023-04-06T10:23:39;101477.03;;;10.31;100.00
42111;BME280;27766;52.174;5.456;2023-04-06T10:26:13;101494.06;;;10.23;100.00
42111;BME280;27766;52.174;5.456;2023-04-06T10:28:42;101471.03;;;10.32;100.00
42111;BME280;27766;52.174;5.456;2023-04-06T10:31:10;101489.53;;;10.44;100.00
42111;BME280;27766;52.174;5.456;2023-04-06T10:33:37;101477.44;;;10.43;100.00
42111;BME280;27766;52.174;5.456;2023-04-06T10:36:15;101486.66;;;10.35;100.00
42111;BME280;27766;52.174;5.456;2023-04-06T10:38:42;101473.41;;;10.24;100.00
42111;BME280;27766;52.174;5.456;2023-04-06T10:41:11;101483.34;;;10.12;100.00
42111;BME280;27766;52.174;5.456;2023-04-06T10:43:40;101467.75;;;10.09;100.00
42111;BME280;27766;52.174;5.456;2023-04-06T10:46:08;101477.31;;;10.11;100.00
42111;BME280;27766;52.174;5.456;2023-04-06T10:51:15;101473.56;;;9.73;100.00
42111;BME280;27766;52.174;5.456;2023-04-06T10:53:46;101482.31;;;9.50;100.00
42111;BME280;27766;52.174;5.456;2023-04-06T10:56:15;101472.50;;;9.40;100.00
42111;BME280;27766;52.174;5.456;2023-04-06T10:58:53;101469.72;;;9.34;100.00
42111;BME280;27766;52.174;5.456;2023-04-06T11:01:24;101474.81;;;9.31;100.00
42111;BME280;27766;52.174;5.456;2023-04-06T11:03:56;101470.19;;;9.22;100.00
42111;BME280;27766;52.174;5.456;2023-04-06T11:06:28;101476.09;;;9.18;100.00
42111;BME280;27766;52.174;5.456;2023-04-06T11:09:05;101466.47;;;9.14;100.00
42111;BME280;27766;52.174;5.456;2023-04-06T11:11:32;101463.97;;;9.15;100.00
42111;BME280;27766;52.174;5.456;2023-04-06T11:13:59;101468.38;;;9.19;100.00
42111;BME280;27766;52.174;5.456;2023-04-06T11:16:30;101467.56;;;9.21;100.00
42111;BME280;27766;52.174;5.456;2023-04-06T11:19:03;101469.00;;;9.12;100.00
42111;BME280;27766;52.174;5.456;2023-04-06T11:21:38;101471.09;;;8.98;100.00
42111;BME280;27766;52.174;5.456;2023-04-06T11:26:40;101459.47;;;8.85;100.00
42111;BME280;27766;52.174;5.456;2023-04-06T11:29:36;101446.34;;;8.79;100.00
42111;BME280;27766;52.174;5.456;2023-04-06T11:32:05;101461.16;;;8.83;100.00
42111;BME280;27766;52.174;5.456;2023-04-06T11:34:35;101451.63;;;8.82;100.00
42111;BME280;27766;52.174;5.456;2023-04-06T11:37:07;101438.94;;;8.89;100.00
42111;BME280;27766;52.174;5.456;2023-04-06T11:39:46;101435.84;;;8.99;100.00
42111;BME280;27766;52.174;5.456;2023-04-06T11:42:21;101443.97;;;9.10;100.00
42111;BME280;27766;52.174;5.456;2023-04-06T11:44:50;101444.28;;;9.19;100.00
42111;BME280;27766;52.174;5.456;2023-04-06T11:47:19;101438.13;;;9.15;100.00
42111;BME280;27766;52.174;5.456;2023-04-06T11:49:47;101437.00;;;9.07;100.00
42111;BME280;27766;52.174;5.456;2023-04-06T11:54:47;101423.31;;;9.10;100.00
42111;BME280;27766;52.174;5.456;2023-04-06T11:57:15;101419.66;;;9.05;100.00
42111;BME280;27766;52.174;5.456;2023-04-06T11:59:43;101437.63;;;9.00;100.00
42111;BME280;27766;52.174;5.456;2023-04-06T12:02:11;101430.13;;;9.08;100.00
42111;BME280;27766;52.174;5.456;2023-04-06T12:04:38;101418.97;;;9.09;100.00
42111;BME280;27766;52.174;5.456;2023-04-06T12:07:06;101423.34;;;9.11;100.00
42111;BME280;27766;52.174;5.456;2023-04-06T12:09:33;101423.38;;;9.13;100.00
42111;BME280;27766;52.174;5.456;2023-04-06T12:12:03;101411.38;;;9.13;100.00
42111;BME280;27766;52.174;5.456;2023-04-06T12:14:30;101414.94;;;9.17;100.00
42111;BME280;27766;52.174;5.456;2023-04-06T12:16:58;101416.09;;;9.27;100.00
42111;BME280;27766;52.174;5.456;2023-04-06T12:19:25;101427.78;;;9.43;100.00
42111;BME280;27766;52.174;5.456;2023-04-06T12:21:53;101415.19;;;9.52;100.00
42111;BME280;27766;52.174;5.456;2023-04-06T12:24:24;101412.44;;;9.47;100.00
42111;BME280;27766;52.174;5.456;2023-04-06T12:26:52;101410.41;;;9.37;100.00
42111;BME280;27766;52.174;5.456;2023-04-06T12:29:29;101422.41;;;9.35;100.00
42111;BME280;27766;52.174;5.456;2023-04-06T12:31:56;101405.97;;;9.33;100.00
42111;BME280;27766;52.174;5.456;2023-04-06T12:34:23;101413.91;;;9.39;100.00
42111;BME280;27766;52.174;5.456;2023-04-06T12:36:50;101399.66;;;9.25;100.00
42111;BME280;27766;52.174;5.456;2023-04-06T12:39:18;101406.25;;;9.15;100.00
42111;BME280;27766;52.174;5.456;2023-04-06T12:41:47;101403.50;;;9.10;100.00
42111;BME280;27766;52.174;5.456;2023-04-06T12:44:14;101397.00;;;8.96;100.00
42111;BME280;27766;52.174;5.456;2023-04-06T12:46:42;101397.84;;;8.95;100.00
42111;BME280;27766;52.174;5.456;2023-04-06T12:49:10;101394.19;;;8.88;100.00
42111;BME280;27766;52.174;5.456;2023-04-06T12:51:38;101391.84;;;8.96;100.00
42111;BME280;27766;52.174;5.456;2023-04-06T12:54:05;101390.03;;;8.93;100.00
42111;BME280;27766;52.174;5.456;2023-04-06T12:56:32;101396.91;;;8.93;100.00
42111;BME280;27766;52.174;5.456;2023-04-06T12:58:59;101394.72;;;8.79;100.00
42111;BME280;27766;52.174;5.456;2023-04-06T13:01:27;101391.00;;;8.71;100.00
42111;BME280;27766;52.174;5.456;2023-04-06T13:03:56;101390.09;;;8.69;100.00
42111;BME280;27766;52.174;5.456;2023-04-06T13:06:23;101387.44;;;8.67;100.00